Portada
METAR-TAF:

METAR-TAF

Aeroports :

Dalian, Xina

latitud: 38-54N, longitud: 121-38E, altitud: 97 m

Observació

L'informe es va fer fa 32 minuts, a les 19:30 UTC
Vent 2 kt del Est
Temperatura 13°C
Humitat 94%
Pressió 1009 hPa
Visibilitat 10 km o més
sense núvols per sota de 1500 mi sense presència de cumulonimbus.

METAR: ZYTL 261930Z 08001MPS CAVOK 13/12 Q1009 NOSIG

Hora: 04:02 (20:02 UTC)

Pronòstic

L'informe es va fer fa 4 hores i 52 minuts, a les 15:10 UTC
Pronòstic vàlid del 26 a les 18 UTC al 27 a les 18 UTC
Vent 8 kt del Sud-Oest
Visibilitat: 4000 m
Núvols disperses a una alçada de 3000 ft
boirina
Temporalment
l' 27 a les 04 UTC al 27 a les 10 UTC
Núvols disperses a una alçada de 800 ft
Cel ennuvolat a una alçada de 2600 ft
Escasses núvols a una alçada de 3300 ft, Cumulonimbus.
xàfecs de pluja, boirina

TAF: ZYTL 261510Z 2618/2718 23004MPS 4000 BR SCT030 TX20/2706Z TN12/2620Z TEMPO 2704/2710 -SHRA BR SCT008 BKN026 FEW033CB

Observacions i pronòstics meteorològics de més de 4000 aeroports (METAR i TAF).

Les estacions disponibles són els punts grocs i vermells al mapa.

Posi el ratolí al punt desitjat per veure el nom de l'estació.

Feu clic per veure les observacions i els pronòstics meteorològics.

Per canviar el mapa: feu clic els botons verds amb una creu de color negre per apropar; al botó verd amb un guió per allunyar la imatge; o en les fletxes verdes per a mapes adjacents.


METAR-TAF: